createdAt,value
2019-04-26T00:00:33.844Z,100707.96
2019-04-26T00:01:37.606Z,100705.34
2019-04-26T00:02:50.920Z,100701.81
2019-04-26T00:03:53.171Z,100701.42
2019-04-26T00:04:55.698Z,100696.45
2019-04-26T00:05:57.911Z,100700.50
2019-04-26T00:07:00.128Z,100696.58
2019-04-26T00:08:02.602Z,100697.89
2019-04-26T00:09:22.441Z,100690.55
2019-04-26T00:10:43.904Z,100694.36
2019-04-26T00:12:05.233Z,100692.52
2019-04-26T00:13:44.583Z,100697.77
2019-04-26T00:15:04.699Z,100690.03
2019-04-26T00:16:34.867Z,100695.27
2019-04-26T00:17:56.017Z,100697.89
2019-04-26T00:18:58.238Z,100695.27
2019-04-26T00:20:00.452Z,100694.87
2019-04-26T00:21:02.673Z,100685.98
2019-04-26T00:22:04.888Z,100689.91
2019-04-26T00:23:07.388Z,100677.61
2019-04-26T00:24:09.615Z,100688.59
2019-04-26T00:25:12.475Z,100693.84
2019-04-26T00:26:15.480Z,100681.66
2019-04-26T00:27:17.702Z,100685.06
2019-04-26T00:28:19.898Z,100683.77
2019-04-26T00:29:22.105Z,100678.52
2019-04-26T00:30:24.256Z,100676.30
2019-04-26T00:31:26.461Z,100674.59
2019-04-26T00:32:28.745Z,100672.89
2019-04-26T00:33:30.962Z,100667.14
2019-04-26T00:34:33.202Z,100659.68
2019-04-26T00:35:46.833Z,100668.45
2019-04-26T00:36:39.330Z,100664.00
2019-04-26T00:37:41.530Z,100660.59
2019-04-26T00:38:43.762Z,100655.23
2019-04-26T00:39:45.965Z,100650.91
2019-04-26T00:40:48.372Z,100649.61
2019-04-26T00:41:50.574Z,100643.06
2019-04-26T00:42:52.794Z,100641.23
2019-04-26T00:43:54.993Z,100643.98
2019-04-26T00:44:57.215Z,100643.85
2019-04-26T00:45:59.435Z,100637.83
2019-04-26T00:47:01.658Z,100639.53
2019-04-26T00:48:03.894Z,100638.74
2019-04-26T00:49:06.106Z,100631.67
2019-04-26T00:50:08.557Z,100632.59
2019-04-26T00:51:10.776Z,100631.28
2019-04-26T00:52:14.032Z,100634.30
2019-04-26T00:53:17.616Z,100631.67
2019-04-26T00:54:20.173Z,100628.14
2019-04-26T00:55:22.460Z,100631.67
2019-04-26T00:56:24.704Z,100632.08
2019-04-26T00:57:26.936Z,100629.45
2019-04-26T00:58:29.202Z,100634.30
2019-04-26T00:59:31.418Z,100639.14
2019-04-26T01:00:33.627Z,100629.06
2019-04-26T01:01:38.658Z,100626.32
2019-04-26T01:02:45.256Z,100627.75
2019-04-26T01:03:47.477Z,100623.31
2019-04-26T01:04:49.659Z,100625.01
2019-04-26T01:05:59.897Z,100623.70
2019-04-26T01:06:56.585Z,100627.75
2019-04-26T01:07:58.703Z,100620.69
2019-04-26T01:09:00.889Z,100615.97
2019-04-26T01:10:03.113Z,100616.37
2019-04-26T01:11:05.322Z,100617.67
2019-04-26T01:12:07.511Z,100622.52
2019-04-26T01:13:09.915Z,100616.77
2019-04-26T01:14:12.111Z,100609.30
2019-04-26T01:15:15.913Z,100614.66
2019-04-26T01:16:18.386Z,100608.00
2019-04-26T01:17:20.616Z,100616.77
2019-04-26T01:18:22.730Z,100611.92
2019-04-26T01:19:24.852Z,100614.14
2019-04-26T01:20:27.051Z,100617.95
2019-04-26T01:21:29.236Z,100622.00
2019-04-26T01:22:31.374Z,100622.91
2019-04-26T01:23:33.565Z,100624.61
2019-04-26T01:24:35.758Z,100619.38
2019-04-26T01:25:38.511Z,100618.47
2019-04-26T01:26:40.733Z,100618.47
2019-04-26T01:27:42.914Z,100616.25
2019-04-26T01:28:45.019Z,100617.55
2019-04-26T01:29:47.204Z,100618.47
2019-04-26T01:30:49.406Z,100618.86
2019-04-26T01:31:51.623Z,100611.92
2019-04-26T01:32:53.820Z,100613.63
2019-04-26T01:33:55.926Z,100617.95
2019-04-26T01:34:58.060Z,100626.72
2019-04-26T01:36:12.158Z,100639.02
2019-04-26T01:37:04.107Z,100640.32
2019-04-26T01:38:09.574Z,100659.95
2019-04-26T01:39:19.710Z,100672.13
2019-04-26T01:40:24.157Z,100695.29
2019-04-26T01:41:33.558Z,100708.37
2019-04-26T01:42:54.690Z,100716.23
2019-04-26T01:44:02.584Z,100714.52
2019-04-26T01:45:20.203Z,100709.30
2019-04-26T01:46:26.890Z,100694.37
2019-04-26T01:47:29.116Z,100677.75
2019-04-26T01:48:43.527Z,100659.04
2019-04-26T01:49:45.735Z,100643.60
2019-04-26T01:50:47.942Z,100648.96
2019-04-26T01:51:50.172Z,100648.84
2019-04-26T01:52:52.375Z,100663.75
2019-04-26T01:53:54.588Z,100675.14
2019-04-26T01:54:56.804Z,100687.31
2019-04-26T01:55:59.013Z,100695.16
2019-04-26T01:57:01.235Z,100707.86
2019-04-26T01:58:03.450Z,100712.70
2019-04-26T01:59:05.649Z,100722.38
2019-04-26T02:00:26.182Z,100724.48
2019-04-26T02:01:52.754Z,100724.87
2019-04-26T02:02:58.010Z,100723.69
2019-04-26T02:04:00.221Z,100706.55
2019-04-26T02:05:04.781Z,100679.06
2019-04-26T02:06:06.972Z,100655.38
2019-04-26T02:07:09.209Z,100646.22
2019-04-26T02:08:11.415Z,100627.77
2019-04-26T02:09:13.818Z,100635.23
2019-04-26T02:10:16.023Z,100649.23
2019-04-26T02:11:18.243Z,100665.33
2019-04-26T02:12:22.442Z,100678.55
2019-04-26T02:13:25.343Z,100681.55
2019-04-26T02:14:27.531Z,100685.48
2019-04-26T02:15:29.743Z,100684.69
2019-04-26T02:16:31.946Z,100679.86
2019-04-26T02:17:34.129Z,100679.46
2019-04-26T02:18:36.244Z,100688.22
2019-04-26T02:19:38.462Z,100707.86
2019-04-26T02:20:40.645Z,100710.87
2019-04-26T02:21:55.301Z,100709.16
2019-04-26T02:23:09.456Z,100710.47
2019-04-26T02:24:18.726Z,100706.55
2019-04-26T02:25:20.892Z,100694.25
2019-04-26T02:26:32.882Z,100681.16
2019-04-26T02:27:35.094Z,100669.78
2019-04-26T02:28:37.264Z,100651.85
2019-04-26T02:29:39.548Z,100635.62
2019-04-26T02:30:41.652Z,100639.55
2019-04-26T02:31:43.832Z,100630.39
2019-04-26T02:32:46.046Z,100631.30
2019-04-26T02:33:48.238Z,100635.23
2019-04-26T02:34:50.424Z,100644.39
2019-04-26T02:35:52.602Z,100650.94
2019-04-26T02:36:58.404Z,100658.79
2019-04-26T02:37:58.664Z,100670.17
2019-04-26T02:39:00.844Z,100670.17
2019-04-26T02:40:02.997Z,100682.87
2019-04-26T02:41:05.182Z,100685.48
2019-04-26T02:42:07.368Z,100683.66
2019-04-26T02:43:09.714Z,100683.27
2019-04-26T02:44:11.899Z,100681.95
2019-04-26T02:45:36.801Z,100667.55
2019-04-26T02:46:49.643Z,100661.80
2019-04-26T02:48:10.792Z,100658.79
2019-04-26T02:49:28.927Z,100652.64
2019-04-26T02:50:39.990Z,100644.79
2019-04-26T02:51:42.104Z,100649.23
2019-04-26T02:52:44.272Z,100653.95
2019-04-26T02:53:46.401Z,100664.81
2019-04-26T02:54:48.640Z,100662.20
2019-04-26T02:55:50.832Z,100667.03
2019-04-26T02:56:53.013Z,100662.20
2019-04-26T02:57:55.180Z,100661.80
2019-04-26T02:58:57.324Z,100663.11
2019-04-26T02:59:59.502Z,100646.09
2019-04-26T03:01:01.616Z,100642.56
2019-04-26T03:02:03.807Z,100638.64
2019-04-26T03:03:05.993Z,100649.50
2019-04-26T03:04:08.197Z,100654.73
2019-04-26T03:05:10.361Z,100662.20
2019-04-26T03:06:12.476Z,100658.66
2019-04-26T03:07:14.606Z,100655.09
2019-04-26T03:08:16.823Z,100653.79
2019-04-26T03:09:19.013Z,100644.63
2019-04-26T03:10:21.204Z,100642.96
2019-04-26T03:11:23.396Z,100636.78
2019-04-26T03:12:25.585Z,100634.16
2019-04-26T03:13:52.538Z,100634.16
2019-04-26T03:15:13.271Z,100631.18
2019-04-26T03:16:24.859Z,100640.70
2019-04-26T03:17:38.025Z,100641.26
2019-04-26T03:19:11.441Z,100645.19
2019-04-26T03:20:14.215Z,100651.17
2019-04-26T03:21:18.335Z,100655.26
2019-04-26T03:22:20.288Z,100662.20
2019-04-26T03:23:22.488Z,100657.87
2019-04-26T03:24:24.684Z,100658.27
2019-04-26T03:25:26.920Z,100657.72
2019-04-26T03:26:29.176Z,100653.79
2019-04-26T03:27:32.958Z,100653.79
2019-04-26T03:28:37.611Z,100650.81
2019-04-26T03:29:41.232Z,100648.95
2019-04-26T03:30:51.775Z,100645.94
2019-04-26T03:31:53.505Z,100635.86
2019-04-26T03:32:53.735Z,100634.95
2019-04-26T03:33:55.307Z,100628.41
2019-04-26T03:34:59.438Z,100628.02
2019-04-26T03:36:20.655Z,100630.63
2019-04-26T03:37:33.759Z,100635.86
2019-04-26T03:38:39.629Z,100632.73
2019-04-26T03:39:49.043Z,100641.89
2019-04-26T03:40:57.256Z,100640.58
2019-04-26T03:42:09.228Z,100647.64
2019-04-26T03:43:11.427Z,100648.95
2019-04-26T03:44:13.629Z,100647.64
2019-04-26T03:45:15.872Z,100644.11
2019-04-26T03:46:18.076Z,100642.02
2019-04-26T03:47:20.283Z,100638.48
2019-04-26T03:48:22.485Z,100638.48
2019-04-26T03:49:24.681Z,100638.09
2019-04-26T03:50:26.886Z,100641.09
2019-04-26T03:51:29.086Z,100635.34
2019-04-26T03:52:31.381Z,100631.42
2019-04-26T03:53:35.578Z,100634.03
2019-04-26T03:54:39.241Z,100628.80
2019-04-26T03:55:43.769Z,100636.26
2019-04-26T03:57:01.820Z,100630.50
2019-04-26T03:58:05.661Z,100633.64
2019-04-26T03:59:42.873Z,100630.11
2019-04-26T04:00:51.361Z,100625.27
2019-04-26T04:02:06.822Z,100624.88
2019-04-26T04:03:26.977Z,100631.42
2019-04-26T04:04:54.650Z,100620.95
2019-04-26T04:05:57.414Z,100628.28
2019-04-26T04:07:04.914Z,100626.97
2019-04-26T04:08:03.488Z,100630.50
2019-04-26T04:09:06.119Z,100626.06
2019-04-26T04:10:08.331Z,100624.75
2019-04-26T04:11:10.534Z,100625.67
2019-04-26T04:12:12.776Z,100618.20
2019-04-26T04:13:16.553Z,100625.67
2019-04-26T04:14:18.876Z,100619.13
2019-04-26T04:15:21.274Z,100617.81
2019-04-26T04:16:23.583Z,100612.58
2019-04-26T04:17:39.023Z,100607.73
2019-04-26T04:18:41.856Z,100612.06
2019-04-26T04:20:02.994Z,100609.97
2019-04-26T04:21:17.118Z,100607.34
2019-04-26T04:22:19.323Z,100612.06
2019-04-26T04:23:21.531Z,100609.05
2019-04-26T04:24:23.755Z,100609.45
2019-04-26T04:25:25.999Z,100600.28
2019-04-26T04:26:28.218Z,100605.12
2019-04-26T04:27:30.417Z,100598.19
2019-04-26T04:28:32.617Z,100593.34
2019-04-26T04:29:42.959Z,100594.66
2019-04-26T04:30:40.657Z,100593.34
2019-04-26T04:31:44.173Z,100595.56
2019-04-26T04:32:47.703Z,100599.49
2019-04-26T04:33:52.510Z,100589.94
2019-04-26T04:34:55.080Z,100594.66
2019-04-26T04:35:57.308Z,100591.12
2019-04-26T04:36:59.503Z,100590.34
2019-04-26T04:38:09.230Z,100591.25
2019-04-26T04:39:12.485Z,100585.50
2019-04-26T04:40:11.688Z,100590.34
2019-04-26T04:41:19.442Z,100592.44
2019-04-26T04:42:26.742Z,100592.55
2019-04-26T04:43:45.182Z,100593.34
2019-04-26T04:45:20.860Z,100592.03
2019-04-26T04:46:43.411Z,100592.03
2019-04-26T04:47:52.613Z,100598.19
2019-04-26T04:49:01.320Z,100605.64
2019-04-26T04:50:09.398Z,100588.63
2019-04-26T04:51:11.588Z,100595.05
2019-04-26T04:52:13.794Z,100600.02
2019-04-26T04:53:15.999Z,100598.58
2019-04-26T04:54:18.208Z,100597.39
2019-04-26T04:55:20.421Z,100607.73
2019-04-26T04:56:22.648Z,100606.55
2019-04-26T04:57:24.889Z,100607.73
2019-04-26T04:58:27.123Z,100608.26
2019-04-26T04:59:29.321Z,100605.64
2019-04-26T05:00:47.147Z,100602.50
2019-04-26T05:02:06.308Z,100598.97
2019-04-26T05:03:27.539Z,100598.58
2019-04-26T05:04:29.884Z,100597.67
2019-04-26T05:05:43.633Z,100594.66
2019-04-26T05:06:49.141Z,100585.50
2019-04-26T05:07:51.523Z,100592.44
2019-04-26T05:08:54.044Z,100595.96
2019-04-26T05:09:56.303Z,100604.33
2019-04-26T05:10:58.539Z,100612.70
2019-04-26T05:12:00.745Z,100610.09
2019-04-26T05:13:02.956Z,100613.22
2019-04-26T05:14:05.210Z,100606.84
2019-04-26T05:15:09.303Z,100610.37
2019-04-26T05:16:16.609Z,100604.34
2019-04-26T05:17:18.809Z,100601.73
2019-04-26T05:18:21.023Z,100599.50
2019-04-26T05:19:26.843Z,100594.39
2019-04-26T05:20:29.169Z,100597.92
2019-04-26T05:21:31.379Z,100600.94
2019-04-26T05:22:33.609Z,100600.54
2019-04-26T05:23:35.869Z,100603.55
2019-04-26T05:24:38.104Z,100605.38
2019-04-26T05:25:53.507Z,100603.16
2019-04-26T05:27:20.850Z,100607.60
2019-04-26T05:28:26.455Z,100608.00
2019-04-26T05:29:28.763Z,100602.77
2019-04-26T05:30:59.137Z,100600.54
2019-04-26T05:32:01.345Z,100598.31
2019-04-26T05:33:03.587Z,100602.24
2019-04-26T05:34:05.893Z,100603.16
2019-04-26T05:35:08.092Z,100609.18
2019-04-26T05:36:12.014Z,100607.09
2019-04-26T05:37:14.209Z,100605.25
2019-04-26T05:38:18.591Z,100605.77
2019-04-26T05:39:20.367Z,100612.05
2019-04-26T05:40:22.572Z,100613.87
2019-04-26T05:41:24.767Z,100611.66
2019-04-26T05:42:32.835Z,100616.09
2019-04-26T05:43:47.433Z,100611.38
2019-04-26T05:45:08.864Z,100613.08
2019-04-26T05:46:36.940Z,100611.38
2019-04-26T05:48:10.375Z,100614.00
2019-04-26T05:49:08.724Z,100609.16
2019-04-26T05:50:18.323Z,100613.60
2019-04-26T05:51:24.953Z,100615.30
2019-04-26T05:52:37.492Z,100607.06
2019-04-26T05:54:10.275Z,100607.45
2019-04-26T05:55:37.377Z,100611.50
2019-04-26T05:56:45.443Z,100609.67
2019-04-26T05:57:50.996Z,100605.88
2019-04-26T05:58:54.546Z,100603.65
2019-04-26T05:59:58.906Z,100604.56
2019-04-26T06:01:11.304Z,100592.27
2019-04-26T06:02:33.270Z,100598.02
2019-04-26T06:04:03.055Z,100591.88
2019-04-26T06:05:13.366Z,100599.72
2019-04-26T06:06:21.807Z,100595.80
2019-04-26T06:07:30.846Z,100596.70
2019-04-26T06:08:40.258Z,100594.61
2019-04-26T06:09:56.497Z,100595.41
2019-04-26T06:11:02.908Z,100594.09
2019-04-26T06:12:05.546Z,100590.16
2019-04-26T06:13:12.260Z,100588.86
2019-04-26T06:14:48.856Z,100589.77
2019-04-26T06:16:00.846Z,100590.56
2019-04-26T06:17:19.491Z,100587.55
2019-04-26T06:18:43.708Z,100583.74
2019-04-26T06:19:59.904Z,100584.02
2019-04-26T06:21:02.155Z,100582.83
2019-04-26T06:22:04.402Z,100580.61
2019-04-26T06:23:06.624Z,100585.45
2019-04-26T06:24:08.826Z,100582.44
2019-04-26T06:25:17.759Z,100582.44
2019-04-26T06:26:38.468Z,100585.05
2019-04-26T06:27:48.294Z,100588.62
2019-04-26T06:28:50.511Z,100579.30
2019-04-26T06:29:54.949Z,100574.98
2019-04-26T06:30:57.248Z,100573.27
2019-04-26T06:32:00.457Z,100578.50
2019-04-26T06:33:05.582Z,100578.15
2019-04-26T06:34:06.580Z,100570.66
2019-04-26T06:35:08.780Z,100575.53
2019-04-26T06:36:19.596Z,100575.13
2019-04-26T06:37:43.794Z,100574.58
2019-04-26T06:39:00.783Z,100574.22
2019-04-26T06:40:04.472Z,100575.53
2019-04-26T06:41:06.807Z,100570.66
2019-04-26T06:42:09.349Z,100575.13
2019-04-26T06:43:22.414Z,100579.06
2019-04-26T06:44:26.212Z,100578.50
2019-04-26T06:46:00.494Z,100580.37
2019-04-26T06:47:14.795Z,100582.59
2019-04-26T06:48:31.937Z,100578.15
2019-04-26T06:49:59.404Z,100574.22
2019-04-26T06:51:02.721Z,100566.37
2019-04-26T06:52:05.124Z,100561.89
2019-04-26T06:53:07.375Z,100559.42
2019-04-26T06:54:11.400Z,100553.28
2019-04-26T06:55:20.831Z,100552.48
2019-04-26T06:56:24.580Z,100544.63
2019-04-26T06:57:38.750Z,100544.63
2019-04-26T06:58:40.950Z,100547.77
2019-04-26T06:59:43.174Z,100556.53
2019-04-26T07:00:58.958Z,100554.31
2019-04-26T07:02:01.168Z,100553.80
2019-04-26T07:03:03.617Z,100563.47
2019-04-26T07:04:06.946Z,100562.05
2019-04-26T07:05:09.076Z,100562.56
2019-04-26T07:06:12.126Z,100567.00
2019-04-26T07:07:14.434Z,100568.31
2019-04-26T07:08:17.094Z,100568.83
2019-04-26T07:09:19.352Z,100561.77
2019-04-26T07:10:21.564Z,100555.22
2019-04-26T07:11:45.999Z,100550.78
2019-04-26T07:12:54.212Z,100551.30
2019-04-26T07:13:56.649Z,100548.28
2019-04-26T07:14:59.298Z,100546.58
2019-04-26T07:16:16.495Z,100550.11
2019-04-26T07:17:07.794Z,100546.58
2019-04-26T07:18:10.804Z,100550.91
2019-04-26T07:19:13.346Z,100554.04
2019-04-26T07:20:34.548Z,100559.27
2019-04-26T07:21:41.623Z,100556.66
2019-04-26T07:22:57.538Z,100559.27
2019-04-26T07:24:06.553Z,100571.05
2019-04-26T07:25:17.751Z,100571.57
2019-04-26T07:26:19.374Z,100576.81
2019-04-26T07:27:21.581Z,100578.11
2019-04-26T07:28:23.843Z,100580.86
2019-04-26T07:29:29.101Z,100579.03
2019-04-26T07:30:31.385Z,100590.41
2019-04-26T07:31:33.703Z,100591.73
2019-04-26T07:32:35.929Z,100595.25
2019-04-26T07:33:38.576Z,100596.17
2019-04-26T07:34:43.137Z,100594.86
2019-04-26T07:35:45.430Z,100601.01
2019-04-26T07:36:47.672Z,100599.70
2019-04-26T07:37:49.858Z,100600.48
2019-04-26T07:39:10.385Z,100604.42
2019-04-26T07:40:21.037Z,100607.83
2019-04-26T07:41:42.221Z,100607.83
2019-04-26T07:42:49.914Z,100605.33
2019-04-26T07:43:52.139Z,100601.92
2019-04-26T07:45:02.742Z,100604.02
2019-04-26T07:46:06.025Z,100602.31
2019-04-26T07:47:08.527Z,100604.02
2019-04-26T07:48:19.923Z,100606.25
2019-04-26T07:49:22.125Z,100596.56
2019-04-26T07:50:24.311Z,100597.08
2019-04-26T07:51:26.520Z,100599.19
2019-04-26T07:52:28.785Z,100595.25
2019-04-26T07:53:30.996Z,100602.72
2019-04-26T07:54:33.201Z,100613.70
2019-04-26T07:55:35.412Z,100613.58
2019-04-26T07:56:37.601Z,100620.52
2019-04-26T07:57:41.534Z,100618.81
2019-04-26T07:58:43.763Z,100616.59
2019-04-26T07:59:45.975Z,100607.83
2019-04-26T08:00:52.954Z,100600.37
2019-04-26T08:02:14.134Z,100593.03
2019-04-26T08:03:39.486Z,100594.73
2019-04-26T08:04:41.693Z,100596.84
2019-04-26T08:05:45.047Z,100588.47
2019-04-26T08:06:51.764Z,100589.37
2019-04-26T08:07:53.996Z,100587.28
2019-04-26T08:08:56.242Z,100582.44
2019-04-26T08:09:59.774Z,100585.84
2019-04-26T08:11:04.353Z,100585.84
2019-04-26T08:12:10.019Z,100586.77
2019-04-26T08:13:13.093Z,100577.59
2019-04-26T08:14:15.385Z,100566.22
2019-04-26T08:15:30.920Z,100566.22
2019-04-26T08:16:55.795Z,100572.76
2019-04-26T08:18:05.248Z,100572.76
2019-04-26T08:19:08.598Z,100570.53
2019-04-26T08:20:15.452Z,100568.31
2019-04-26T08:21:42.469Z,100572.24
2019-04-26T08:22:43.016Z,100570.53
2019-04-26T08:23:56.591Z,100569.63
2019-04-26T08:24:59.687Z,100581.80
2019-04-26T08:26:01.857Z,100586.64
2019-04-26T08:27:13.387Z,100581.80
2019-04-26T08:28:08.413Z,100584.02
2019-04-26T08:29:10.670Z,100593.58
2019-04-26T08:30:16.113Z,100595.41
2019-04-26T08:31:21.130Z,100606.67
2019-04-26T08:32:21.481Z,100605.75
2019-04-26T08:33:25.271Z,100622.38
2019-04-26T08:34:31.739Z,100646.85
2019-04-26T08:35:32.051Z,100659.55
2019-04-26T08:36:37.801Z,100657.32
2019-04-26T08:37:55.296Z,100645.55
2019-04-26T08:38:57.527Z,100641.09
2019-04-26T08:39:59.825Z,100628.92
2019-04-26T08:41:04.965Z,100628.01
2019-04-26T08:42:12.118Z,100627.61
2019-04-26T08:43:40.640Z,100616.63
2019-04-26T08:44:54.783Z,100604.33
2019-04-26T08:46:03.939Z,100601.70
2019-04-26T08:47:27.943Z,100608.61
2019-04-26T08:49:01.528Z,100608.25
2019-04-26T08:50:13.730Z,100602.63
2019-04-26T08:51:20.472Z,100596.83
2019-04-26T08:52:23.942Z,100603.02
2019-04-26T08:53:27.232Z,100607.70
2019-04-26T08:54:32.702Z,100618.33
2019-04-26T08:55:34.913Z,100612.94
2019-04-26T08:56:37.127Z,100609.56
2019-04-26T08:57:39.333Z,100609.92
2019-04-26T08:58:41.586Z,100612.17
2019-04-26T08:59:43.808Z,100615.70
2019-04-26T09:01:17.396Z,100610.47
2019-04-26T09:02:38.548Z,100608.77
2019-04-26T09:03:44.305Z,100602.06
2019-04-26T09:04:54.973Z,100597.78
2019-04-26T09:06:13.742Z,100599.09
2019-04-26T09:07:18.752Z,100590.84
2019-04-26T09:08:20.954Z,100591.59
2019-04-26T09:09:25.646Z,100593.70
2019-04-26T09:10:27.879Z,100595.92
2019-04-26T09:11:33.684Z,100599.45
2019-04-26T09:12:33.957Z,100599.84
2019-04-26T09:13:36.195Z,100599.45
2019-04-26T09:14:38.446Z,100608.61
2019-04-26T09:15:40.781Z,100612.17
2019-04-26T09:16:50.167Z,100614.64
2019-04-26T09:17:46.987Z,100629.55
2019-04-26T09:18:54.145Z,100634.79
2019-04-26T09:19:53.099Z,100639.66
2019-04-26T09:20:55.323Z,100649.34
2019-04-26T09:22:13.541Z,100658.51
2019-04-26T09:23:40.176Z,100661.13
2019-04-26T09:25:06.048Z,100664.66
2019-04-26T09:26:12.456Z,100660.73
2019-04-26T09:27:30.230Z,100659.16
2019-04-26T09:28:41.824Z,100661.77
2019-04-26T09:29:55.435Z,100667.52
2019-04-26T09:31:15.366Z,100664.78
2019-04-26T09:32:27.908Z,100667.00
2019-04-26T09:33:38.997Z,100674.47
2019-04-26T09:34:41.603Z,100671.84
2019-04-26T09:35:44.939Z,100675.77
2019-04-26T09:36:47.127Z,100677.87
2019-04-26T09:37:49.348Z,100682.71
2019-04-26T09:38:51.589Z,100686.25
2019-04-26T09:39:53.788Z,100689.13
2019-04-26T09:40:57.193Z,100687.83
2019-04-26T09:42:05.975Z,100687.43
2019-04-26T09:43:21.916Z,100688.73
2019-04-26T09:44:42.936Z,100683.50
2019-04-26T09:46:04.211Z,100680.89
2019-04-26T09:47:34.688Z,100676.44
2019-04-26T09:48:41.466Z,100680.37
2019-04-26T09:50:02.624Z,100685.60
2019-04-26T09:51:05.323Z,100683.50
2019-04-26T09:52:12.363Z,100681.80
2019-04-26T09:53:14.608Z,100672.24
2019-04-26T09:54:16.820Z,100666.61
2019-04-26T09:55:19.040Z,100662.80
2019-04-26T09:56:22.395Z,100662.29
2019-04-26T09:57:24.607Z,100666.73
2019-04-26T09:58:30.474Z,100667.25
2019-04-26T09:59:30.654Z,100664.64
2019-04-26T10:00:32.877Z,100665.55
2019-04-26T10:01:35.424Z,100665.67
2019-04-26T10:02:37.770Z,100672.22
2019-04-26T10:03:40.013Z,100669.59
2019-04-26T10:04:42.212Z,100673.53
2019-04-26T10:05:44.432Z,100673.12
2019-04-26T10:06:48.248Z,100670.52
2019-04-26T10:07:50.454Z,100669.20
2019-04-26T10:08:52.664Z,100667.89
2019-04-26T10:09:56.493Z,100663.45
2019-04-26T10:10:58.756Z,100663.97
2019-04-26T10:12:06.553Z,100658.34
2019-04-26T10:13:33.705Z,100658.34
2019-04-26T10:15:00.714Z,100647.86
2019-04-26T10:16:21.875Z,100657.94
2019-04-26T10:17:28.182Z,100657.03
2019-04-26T10:18:30.391Z,100659.64
2019-04-26T10:19:40.614Z,100662.66
2019-04-26T10:20:42.840Z,100663.57
2019-04-26T10:21:45.060Z,100664.88
2019-04-26T10:22:47.324Z,100652.83
2019-04-26T10:23:49.670Z,100654.53
2019-04-26T10:24:51.927Z,100643.66
2019-04-26T10:25:54.157Z,100634.89
2019-04-26T10:26:59.175Z,100635.41
2019-04-26T10:28:00.251Z,100633.19
2019-04-26T10:29:02.674Z,100633.74
2019-04-26T10:30:09.162Z,100632.03
2019-04-26T10:31:13.480Z,100635.97
2019-04-26T10:32:14.241Z,100629.27
2019-04-26T10:33:16.452Z,100633.19
2019-04-26T10:34:18.687Z,100636.72
2019-04-26T10:35:21.852Z,100631.88
2019-04-26T10:36:26.303Z,100637.12
2019-04-26T10:37:38.900Z,100637.39
2019-04-26T10:38:32.595Z,100633.98
2019-04-26T10:39:36.909Z,100643.14
2019-04-26T10:40:38.691Z,100646.67
2019-04-26T10:41:40.892Z,100651.91
2019-04-26T10:42:43.101Z,100648.38
2019-04-26T10:43:45.344Z,100654.02
2019-04-26T10:44:47.561Z,100656.23
2019-04-26T10:45:53.528Z,100653.62
2019-04-26T10:46:55.621Z,100649.69
2019-04-26T10:47:57.483Z,100659.92
2019-04-26T10:49:08.883Z,100655.61
2019-04-26T10:50:03.906Z,100652.08
2019-04-26T10:51:07.332Z,100646.44
2019-04-26T10:52:15.408Z,100647.35
2019-04-26T10:53:41.027Z,100643.16
2019-04-26T10:54:46.042Z,100637.40
2019-04-26T10:56:03.312Z,100646.95
2019-04-26T10:57:14.243Z,100641.72
2019-04-26T10:58:20.622Z,100651.13
2019-04-26T10:59:44.062Z,100655.33
2019-04-26T11:00:48.443Z,100653.50
2019-04-26T11:01:50.020Z,100656.51
2019-04-26T11:02:52.235Z,100655.20
2019-04-26T11:03:54.501Z,100657.81
2019-04-26T11:04:56.699Z,100660.44
2019-04-26T11:05:58.983Z,100657.81
2019-04-26T11:07:02.048Z,100665.28
2019-04-26T11:08:05.110Z,100660.44
2019-04-26T11:09:07.329Z,100664.88
2019-04-26T11:10:09.917Z,100663.45
2019-04-26T11:11:12.120Z,100671.43
2019-04-26T11:12:14.586Z,100672.73
2019-04-26T11:13:16.797Z,100677.18
2019-04-26T11:14:22.774Z,100675.36
2019-04-26T11:15:22.881Z,100668.81
2019-04-26T11:16:25.138Z,100678.49
2019-04-26T11:17:27.347Z,100678.09
2019-04-26T11:18:29.577Z,100677.70
2019-04-26T11:19:31.935Z,100672.86
2019-04-26T11:20:35.642Z,100674.56
2019-04-26T11:21:38.865Z,100673.38
2019-04-26T11:22:41.097Z,100676.00
2019-04-26T11:23:45.462Z,100675.08
2019-04-26T11:24:50.148Z,100672.07
2019-04-26T11:25:51.043Z,100669.09
2019-04-26T11:26:53.526Z,100674.69
2019-04-26T11:27:55.715Z,100674.33
2019-04-26T11:28:57.943Z,100667.78
2019-04-26T11:30:11.099Z,100670.76
2019-04-26T11:31:04.957Z,100671.71
2019-04-26T11:32:07.178Z,100676.39
2019-04-26T11:33:11.162Z,100679.92
2019-04-26T11:34:14.974Z,100677.97
2019-04-26T11:35:17.223Z,100679.28
2019-04-26T11:36:19.452Z,100676.27
2019-04-26T11:37:21.652Z,100679.28
2019-04-26T11:38:26.823Z,100670.52
2019-04-26T11:39:28.226Z,100672.73
2019-04-26T11:40:30.614Z,100672.73
2019-04-26T11:41:34.041Z,100667.89
2019-04-26T11:42:36.425Z,100676.27
2019-04-26T11:43:38.689Z,100678.89
2019-04-26T11:44:40.901Z,100678.89
2019-04-26T11:45:45.332Z,100688.17
2019-04-26T11:46:46.993Z,100690.27
2019-04-26T11:47:56.162Z,100688.05
2019-04-26T11:48:58.835Z,100688.05
2019-04-26T11:49:57.262Z,100686.22
2019-04-26T11:50:59.539Z,100686.73
2019-04-26T11:52:02.830Z,100689.75
2019-04-26T11:53:06.291Z,100687.53
2019-04-26T11:54:09.454Z,100693.29
2019-04-26T11:55:11.656Z,100694.99
2019-04-26T11:56:13.883Z,100700.23
2019-04-26T11:57:16.114Z,100695.39
2019-04-26T11:58:22.395Z,100694.99
2019-04-26T11:59:22.184Z,100694.59
2019-04-26T12:00:28.886Z,100689.23
2019-04-26T12:01:31.094Z,100694.08
2019-04-26T12:02:36.681Z,100689.75
2019-04-26T12:03:40.646Z,100691.86
2019-04-26T12:04:59.741Z,100685.31
2019-04-26T12:06:17.459Z,100685.31
2019-04-26T12:07:41.443Z,100688.84
2019-04-26T12:08:49.363Z,100686.62
2019-04-26T12:09:53.573Z,100689.75
2019-04-26T12:10:55.780Z,100689.23
2019-04-26T12:12:04.557Z,100688.84
2019-04-26T12:13:05.879Z,100692.77
2019-04-26T12:14:05.775Z,100690.42
2019-04-26T12:15:08.621Z,100695.78
2019-04-26T12:16:14.537Z,100699.71
2019-04-26T12:17:15.881Z,100706.25
2019-04-26T12:18:18.101Z,100701.41
2019-04-26T12:19:20.289Z,100704.55
2019-04-26T12:20:26.403Z,100702.33
2019-04-26T12:21:26.379Z,100699.71
2019-04-26T12:22:28.614Z,100701.14
2019-04-26T12:23:31.053Z,100705.98
2019-04-26T12:24:34.495Z,100701.14
2019-04-26T12:25:38.794Z,100703.77
2019-04-26T12:26:43.096Z,100709.79
2019-04-26T12:27:44.685Z,100707.17
2019-04-26T12:28:47.071Z,100710.30
2019-04-26T12:29:49.813Z,100714.63
2019-04-26T12:30:54.155Z,100715.02
2019-04-26T12:31:56.070Z,100721.70
2019-04-26T12:32:58.279Z,100717.38
2019-04-26T12:34:00.510Z,100716.58
2019-04-26T12:35:02.743Z,100720.51
2019-04-26T12:36:05.360Z,100711.34